Time;durP1;ratioP1;P1;durP2;ratioP2;P2;SDS_P1;SDS_P2;PMS_P1;PMS_P2;Temp;Humidity;BMP_temperature;BMP_pressure;BME280_temperature;BME280_humidity;BME280_pressure;Samples;Min_cycle;Max_cycle;Signal;HPM_P1;HPM_P2
2022/09/26 00:01:29;;;;;;;6.53;3.20;;;11.50;99.90;;;;;;5052773;28;20059;-59
2022/09/26 00:04:00;;;;;;;6.80;3.45;;;10.90;99.90;;;;;;5052852;28;20045;-59
2022/09/26 00:06:27;;;;;;;8.45;3.42;;;10.90;99.90;;;;;;5053054;28;20069;-59
2022/09/26 00:09:02;;;;;;;8.60;3.25;;;10.90;99.90;;;;;;5052828;28;20477;-59
2022/09/26 00:11:31;;;;;;;6.43;3.20;;;10.90;99.90;;;;;;5035123;28;20056;-58
2022/09/26 00:14:00;;;;;;;6.03;3.60;;;10.90;99.90;;;;;;5053134;28;20124;-59
2022/09/26 00:16:31;;;;;;;7.20;3.70;;;;;;;;;;5053199;28;20054;-58
2022/09/26 00:19:01;;;;;;;6.70;3.22;;;11.00;99.90;;;;;;5052807;28;20033;-59
2022/09/26 00:21:29;;;;;;;10.55;3.40;;;10.80;99.90;;;;;;5053145;28;20041;-59
2022/09/26 00:23:56;;;;;;;6.88;3.33;;;10.00;99.90;;;;;;5056889;28;20037;-58
2022/09/26 00:26:25;;;;;;;6.47;3.63;;;11.00;99.90;;;;;;5057112;28;20051;-59
2022/09/26 00:28:55;;;;;;;7.72;3.05;;;10.90;99.90;;;;;;5056693;28;20090;-59
2022/09/26 00:31:40;;;;;;;7.00;3.05;;;11.60;99.90;;;;;;5056933;28;20037;-58
2022/09/26 00:34:06;;;;;;;6.38;3.13;;;11.20;99.90;;;;;;5056909;28;20036;-59
2022/09/26 00:36:35;;;;;;;7.32;3.50;;;;;;;;;;5056572;28;20045;-58
2022/09/26 00:39:01;;;;;;;7.95;3.33;;;;;;;;;;5056815;28;20079;-59
2022/09/26 00:41:29;;;;;;;6.90;2.97;;;11.90;99.90;;;;;;5056420;28;20041;-58
2022/09/26 00:43:56;;;;;;;6.10;3.10;;;11.00;99.90;;;;;;5056595;28;20041;-59
2022/09/26 00:46:47;;;;;;;7.95;3.15;;;11.10;99.90;;;;;;5055756;28;20052;-59
2022/09/26 00:49:43;;;;;;;6.55;3.00;;;10.90;99.90;;;;;;5056335;28;20048;-59
2022/09/26 00:52:17;;;;;;;9.40;2.95;;;11.00;99.90;;;;;;5056397;28;20107;-59
2022/09/26 00:54:47;;;;;;;5.18;3.05;;;11.00;99.90;;;;;;5058469;28;20117;-59
2022/09/26 00:57:19;;;;;;;7.18;3.28;;;9.90;99.90;;;;;;5055327;28;20080;-59
2022/09/26 00:59:53;;;;;;;8.32;3.47;;;10.90;99.90;;;;;;5056489;28;20033;-59
2022/09/26 01:02:19;;;;;;;7.75;3.40;;;;;;;;;;5055926;28;20045;-59
2022/09/26 01:04:46;;;;;;;6.88;3.70;;;11.00;99.90;;;;;;5056413;28;20087;-59
2022/09/26 01:07:18;;;;;;;6.03;3.55;;;10.80;99.90;;;;;;5056601;28;20039;-58
2022/09/26 01:09:48;;;;;;;9.47;3.83;;;10.90;99.90;;;;;;5056357;28;20055;-58
2022/09/26 01:12:15;;;;;;;7.97;3.65;;;10.90;99.90;;;;;;5055696;28;20077;-59
2022/09/26 01:14:42;;;;;;;5.63;3.42;;;11.70;99.90;;;;;;5056118;28;20041;-59
2022/09/26 01:17:09;;;;;;;9.40;3.83;;;10.80;99.90;;;;;;5056179;28;20049;-59
2022/09/26 01:19:53;;;;;;;10.38;4.03;;;11.50;99.90;;;;;;5055872;28;20041;-59
2022/09/26 01:22:31;;;;;;;7.03;4.10;;;10.90;99.90;;;;;;5056115;28;20115;-58
2022/09/26 01:25:08;;;;;;;7.50;4.03;;;11.50;99.90;;;;;;5054487;28;20120;-58
2022/09/26 01:28:04;;;;;;;8.98;4.03;;;10.90;99.90;;;;;;5055725;28;20079;-62
2022/09/26 01:30:51;;;;;;;9.80;3.75;;;10.80;99.90;;;;;;5055405;28;20080;-59
2022/09/26 01:33:36;;;;;;;9.65;4.13;;;10.80;99.90;;;;;;5055677;28;20069;-59
2022/09/26 01:36:17;;;;;;;9.98;3.88;;;10.70;99.90;;;;;;5054412;28;20476;-59
2022/09/26 01:39:17;;;;;;;9.20;4.03;;;10.90;99.90;;;;;;5055501;28;20048;-59
2022/09/26 01:41:56;;;;;;;8.00;3.85;;;10.90;99.90;;;;;;5039498;28;20083;-59
2022/09/26 01:44:35;;;;;;;11.20;3.95;;;10.80;99.90;;;;;;5055463;28;20037;-60
2022/09/26 01:47:23;;;;;;;7.50;3.53;;;11.00;99.90;;;;;;5055248;28;20051;-60
2022/09/26 01:50:00;;;;;;;8.05;3.58;;;11.30;99.90;;;;;;5055421;28;20406;-59
2022/09/26 01:52:47;;;;;;;7.38;3.83;;;10.90;99.90;;;;;;5055308;28;20036;-59
2022/09/26 01:55:52;;;;;;;7.88;3.90;;;10.70;99.90;;;;;;5054552;28;20076;-59
2022/09/26 01:58:31;;;;;;;9.25;3.78;;;10.80;99.90;;;;;;5046402;28;20052;-59
2022/09/26 02:01:02;;;;;;;6.88;3.75;;;10.80;99.90;;;;;;5053676;28;20091;-59
2022/09/26 02:03:34;;;;;;;8.13;3.70;;;10.70;99.90;;;;;;5055174;28;20055;-59
2022/09/26 02:06:09;;;;;;;5.68;3.33;;;10.90;99.90;;;;;;5055202;28;20037;-59
2022/09/26 02:08:50;;;;;;;9.50;3.80;;;10.70;99.90;;;;;;5055256;28;20045;-59
2022/09/26 02:11:17;;;;;;;6.45;3.53;;;10.90;99.90;;;;;;5054950;28;20080;-59
2022/09/26 02:13:46;;;;;;;8.27;3.80;;;10.60;99.90;;;;;;5054840;28;20052;-59
2022/09/26 02:16:39;;;;;;;9.05;3.95;;;10.90;99.90;;;;;;5054561;28;20044;-59
2022/09/26 02:19:11;;;;;;;9.20;4.10;;;10.40;99.90;;;;;;5054424;28;20048;-59
2022/09/26 02:21:39;;;;;;;12.43;4.55;;;10.60;99.90;;;;;;5054750;28;20374;-59
2022/09/26 02:24:07;;;;;;;8.82;3.72;;;10.90;99.90;;;;;;5054691;28;20029;-59
2022/09/26 02:26:36;;;;;;;7.43;4.22;;;9.70;99.90;;;;;;5055126;28;20049;-59
2022/09/26 02:29:02;;;;;;;13.02;4.38;;;11.40;99.90;;;;;;5054651;28;20045;-58
2022/09/26 02:31:34;;;;;;;7.65;4.30;;;11.10;99.90;;;;;;5053552;28;20040;-59
2022/09/26 02:34:04;;;;;;;;;;;10.90;99.90;;;;;;5054879;28;20044;-59
2022/09/26 02:36:35;;;;;;;7.35;4.18;;;11.20;99.90;;;;;;5054307;28;19924;-59
2022/09/26 02:39:02;;;;;;;7.07;4.32;;;11.00;99.90;;;;;;5054294;28;20473;-59
2022/09/26 02:42:18;;;;;;;13.60;4.60;;;9.80;99.90;;;;;;5054441;28;20091;-59
2022/09/26 02:45:15;;;;;;;8.48;4.50;;;11.00;99.90;;;;;;4995319;28;20168;-59
2022/09/26 02:48:08;;;;;;;11.90;5.15;;;11.00;99.90;;;;;;5012406;28;20103;-59
2022/09/26 02:51:02;;;;;;;11.10;5.25;;;12.90;99.90;;;;;;5012408;28;20441;-59
2022/09/26 02:53:56;;;;;;;10.57;4.97;;;10.90;99.90;;;;;;5012284;28;20049;-58
2022/09/26 02:56:55;;;;;;;9.07;4.88;;;11.10;99.90;;;;;;5012297;28;20050;-59
2022/09/26 02:59:33;;;;;;;7.43;4.88;;;11.10;99.90;;;;;;5012247;28;20069;-59
2022/09/26 03:02:23;;;;;;;9.35;5.28;;;10.90;99.90;;;;;;5011806;28;20093;-59
2022/09/26 03:05:09;;;;;;;10.82;5.22;;;10.10;99.90;;;;;;5028548;28;20514;-59
2022/09/26 03:07:46;;;;;;;;;;;11.00;99.90;;;;;;5013667;28;20141;-59
2022/09/26 03:10:15;;;;;;;9.98;5.57;;;11.00;99.90;;;;;;4995765;28;19968;-59
2022/09/26 03:12:45;;;;;;;11.07;5.68;;;11.00;99.90;;;;;;4995713;28;20054;-59
2022/09/26 03:15:13;;;;;;;8.38;5.63;;;11.10;99.90;;;;;;5011094;28;20045;-59
2022/09/26 03:17:50;;;;;;;13.65;5.95;;;11.10;99.90;;;;;;5016141;28;20048;-59
2022/09/26 03:20:20;;;;;;;15.80;6.50;;;11.10;99.90;;;;;;5052046;28;20163;-59
2022/09/26 03:22:49;;;;;;;10.50;6.10;;;11.00;99.90;;;;;;5051766;28;20102;-59
2022/09/26 03:25:21;;;;;;;12.80;6.43;;;11.10;99.90;;;;;;5051984;28;20451;-59
2022/09/26 03:27:48;;;;;;;11.68;6.90;;;11.00;99.90;;;;;;5050304;28;20045;-59
2022/09/26 03:30:19;;;;;;;13.35;6.95;;;11.20;99.90;;;;;;5051936;28;20481;-59
2022/09/26 03:32:46;;;;;;;14.00;6.75;;;11.10;99.90;;;;;;5053436;28;20041;-59
2022/09/26 03:35:12;;;;;;;12.80;7.20;;;11.20;99.90;;;;;;5053371;28;20072;-59
2022/09/26 03:37:38;;;;;;;13.75;7.32;;;11.00;99.90;;;;;;5053452;28;20564;-60
2022/09/26 03:40:07;;;;;;;11.70;7.45;;;11.10;99.90;;;;;;5053091;28;20488;-59
2022/09/26 03:42:33;;;;;;;16.52;7.65;;;11.10;99.90;;;;;;5052782;28;20048;-59
2022/09/26 03:45:01;;;;;;;12.00;7.40;;;10.90;99.90;;;;;;5053808;28;20479;-59
2022/09/26 03:47:27;;;;;;;13.25;7.00;;;11.00;99.90;;;;;;5051685;28;20037;-59
2022/09/26 03:49:56;;;;;;;13.15;7.90;;;11.90;99.90;;;;;;5053472;28;20358;-59
2022/09/26 03:52:24;;;;;;;14.02;7.95;;;11.00;99.90;;;;;;5053233;28;20048;-59
2022/09/26 03:54:52;;;;;;;15.07;7.85;;;;;;;;;;5053215;28;20041;-58
2022/09/26 03:57:18;;;;;;;13.60;8.13;;;12.00;99.90;;;;;;5052997;28;20037;-58
2022/09/26 03:59:45;;;;;;;11.50;7.82;;;11.00;99.90;;;;;;5053046;28;20037;-59
2022/09/26 04:02:12;;;;;;;15.60;7.95;;;11.00;99.90;;;;;;5053044;28;20081;-58
2022/09/26 04:04:40;;;;;;;14.43;8.43;;;10.90;99.90;;;;;;5052885;28;20052;-59
2022/09/26 04:07:06;;;;;;;13.48;7.85;;;11.00;99.90;;;;;;5053001;28;20485;-58
2022/09/26 04:09:32;;;;;;;12.75;8.70;;;11.00;99.90;;;;;;5052821;28;20048;-58
2022/09/26 04:11:58;;;;;;;16.15;8.88;;;11.00;99.90;;;;;;5053068;28;20073;-59
2022/09/26 04:14:23;;;;;;;17.63;9.55;;;10.60;99.90;;;;;;5053184;28;20033;-59
2022/09/26 04:16:49;;;;;;;13.57;8.75;;;11.00;99.90;;;;;;5052868;28;20037;-59
2022/09/26 04:19:15;;;;;;;17.65;9.63;;;10.90;99.90;;;;;;5053268;28;20040;-59
2022/09/26 04:21:41;;;;;;;16.15;10.05;;;11.60;99.90;;;;;;5052907;28;20048;-58
2022/09/26 04:24:13;;;;;;;12.98;9.07;;;11.00;99.90;;;;;;5053032;28;20029;-59
2022/09/26 04:26:41;;;;;;;17.27;10.57;;;10.90;99.90;;;;;;5052846;28;20536;-59
2022/09/26 04:29:10;;;;;;;14.15;9.55;;;11.60;99.90;;;;;;5053087;28;20037;-59
2022/09/26 04:31:39;;;;;;;19.05;10.50;;;10.80;99.90;;;;;;5052728;28;20088;-59
2022/09/26 04:34:10;;;;;;;17.58;9.90;;;11.20;99.90;;;;;;5053038;28;20037;-59
2022/09/26 04:36:36;;;;;;;15.43;10.40;;;;;;;;;;5052968;28;20612;-59
2022/09/26 04:39:04;;;;;;;17.00;11.45;;;10.90;99.90;;;;;;5052599;28;20095;-59
2022/09/26 04:41:30;;;;;;;15.57;11.10;;;10.50;99.90;;;;;;5052560;28;20041;-59
2022/09/26 04:44:00;;;;;;;16.13;10.68;;;10.90;99.90;;;;;;5052772;28;20048;-59
2022/09/26 04:46:28;;;;;;;19.63;10.82;;;10.90;99.90;;;;;;5052973;28;20111;-59
2022/09/26 04:48:57;;;;;;;18.02;11.75;;;10.90;99.90;;;;;;5051639;28;20425;-59
2022/09/26 04:51:24;;;;;;;17.35;12.07;;;10.90;99.90;;;;;;5052261;28;20071;-58
2022/09/26 04:53:51;;;;;;;16.80;11.10;;;10.90;99.90;;;;;;5052680;28;20098;-58
2022/09/26 04:56:19;;;;;;;17.67;10.95;;;10.70;99.90;;;;;;5052595;28;20041;-59
2022/09/26 04:58:45;;;;;;;21.73;11.30;;;10.80;99.90;;;;;;5052184;28;20041;-58
2022/09/26 05:01:17;;;;;;;21.13;11.43;;;10.90;99.90;;;;;;5040535;28;20080;-58
2022/09/26 05:03:44;;;;;;;17.63;10.77;;;;;;;;;;5046190;28;20541;-58
2022/09/26 05:06:11;;;;;;;18.73;10.80;;;10.90;99.90;;;;;;5049524;28;20381;-59
2022/09/26 05:08:47;;;;;;;17.25;10.43;;;10.70;99.90;;;;;;5040021;28;20076;-58
2022/09/26 05:11:15;;;;;;;20.17;10.68;;;10.90;99.90;;;;;;5052953;28;20124;-58
2022/09/26 05:13:44;;;;;;;15.73;10.63;;;10.80;99.90;;;;;;5053234;28;20512;-58
2022/09/26 05:16:13;;;;;;;14.95;10.25;;;10.90;99.90;;;;;;5041031;28;20052;-58
2022/09/26 05:18:39;;;;;;;14.73;9.93;;;10.60;99.90;;;;;;5053302;28;20206;-58
2022/09/26 05:21:06;;;;;;;12.07;9.40;;;10.80;99.90;;;;;;5053412;28;20530;-58
2022/09/26 05:26:42;;;;;;;15.88;10.45;;;10.90;99.90;;;;;;5054585;28;20037;-58
2022/09/26 05:29:08;;;;;;;13.40;9.48;;;10.80;99.90;;;;;;5047630;28;20044;-58
2022/09/26 05:31:38;;;;;;;14.75;9.30;;;10.80;99.90;;;;;;5032741;28;20052;-58
2022/09/26 05:34:05;;;;;;;16.70;9.32;;;11.10;99.90;;;;;;5032719;28;20042;-59
2022/09/26 05:36:32;;;;;;;19.95;9.52;;;10.90;99.90;;;;;;5034268;28;20116;-58
2022/09/26 05:39:03;;;;;;;13.35;9.00;;;10.70;99.90;;;;;;5034503;28;20049;-57
2022/09/26 05:41:32;;;;;;;18.33;8.75;;;;;;;;;;5034661;28;20452;-58
2022/09/26 05:44:00;;;;;;;16.15;8.73;;;10.90;99.90;;;;;;5032466;28;20042;-59
2022/09/26 05:46:27;;;;;;;16.83;8.55;;;;;;;;;;5033732;28;20067;-58
2022/09/26 05:48:54;;;;;;;23.60;8.63;;;10.70;99.90;;;;;;5033444;28;20049;-59
2022/09/26 05:51:22;;;;;;;14.15;8.70;;;10.80;99.90;;;;;;5033352;28;20038;-59
2022/09/26 05:53:49;;;;;;;18.40;9.20;;;;;;;;;;5033110;28;20512;-58
2022/09/26 05:56:16;;;;;;;14.35;8.30;;;11.20;99.90;;;;;;5033801;28;20456;-58
2022/09/26 05:58:46;;;;;;;10.60;8.05;;;11.00;99.90;;;;;;5033501;28;20053;-60
2022/09/26 06:01:14;;;;;;;13.63;8.25;;;10.80;99.90;;;;;;5033890;28;20053;-64
2022/09/26 06:03:43;;;;;;;14.35;8.32;;;10.80;99.90;;;;;;5033302;28;20046;-59
2022/09/26 06:06:21;;;;;;;11.75;7.93;;;10.80;99.90;;;;;;5034531;28;20112;-59
2022/09/26 06:08:48;;;;;;;16.95;7.50;;;10.90;99.90;;;;;;5032691;28;20041;-63
2022/09/26 06:11:16;;;;;;;19.88;7.93;;;11.90;99.90;;;;;;5034500;28;20112;-61
2022/09/26 06:13:48;;;;;;;12.93;7.88;;;10.90;99.90;;;;;;5033873;28;20120;-59
2022/09/26 06:16:18;;;;;;;12.10;7.50;;;10.90;99.90;;;;;;5034292;28;20041;-59
2022/09/26 06:18:51;;;;;;;20.38;7.68;;;10.80;99.90;;;;;;5051196;28;20489;-59
2022/09/26 06:21:21;;;;;;;9.77;7.32;;;10.90;99.90;;;;;;5053166;28;20072;-59
2022/09/26 06:23:47;;;;;;;11.52;7.70;;;;;;;;;;5053140;28;20386;-58
2022/09/26 06:26:20;;;;;;;12.57;7.38;;;11.00;99.90;;;;;;5054066;28;20037;-58
2022/09/26 06:28:52;;;;;;;11.75;7.28;;;11.10;99.90;;;;;;5054516;28;20124;-58
2022/09/26 06:31:20;;;;;;;9.02;6.88;;;10.80;99.90;;;;;;5059034;28;20083;-58
2022/09/26 06:33:52;;;;;;;15.68;7.30;;;10.90;99.90;;;;;;5054343;28;20059;-58
2022/09/26 06:36:28;;;;;;;12.98;6.75;;;10.30;99.90;;;;;;5053990;28;20112;-58
2022/09/26 06:38:57;;;;;;;10.32;6.40;;;10.90;99.90;;;;;;5035390;28;20132;-58
2022/09/26 06:41:26;;;;;;;11.50;6.53;;;;;;;;;;5038092;28;20120;-58
2022/09/26 06:43:52;;;;;;;14.90;6.70;;;10.90;99.90;;;;;;5053316;28;20043;-57
2022/09/26 06:46:19;;;;;;;9.60;6.20;;;10.90;99.90;;;;;;5053109;28;20112;-58
2022/09/26 06:48:45;;;;;;;10.32;6.10;;;11.00;99.90;;;;;;5054188;28;20071;-58
2022/09/26 06:51:13;;;;;;;9.77;5.97;;;10.80;99.90;;;;;;5054254;28;20136;-58
2022/09/26 06:53:44;;;;;;;13.35;5.70;;;9.80;99.90;;;;;;5054021;28;20040;-58
2022/09/26 06:56:12;;;;;;;19.73;6.00;;;10.10;99.90;;;;;;5054074;28;20037;-58
2022/09/26 06:58:38;;;;;;;8.35;5.40;;;10.80;99.90;;;;;;5053973;28;20040;-58
2022/09/26 07:01:05;;;;;;;9.45;5.43;;;10.90;99.90;;;;;;5052606;28;20447;-58
2022/09/26 07:03:31;;;;;;;7.82;5.00;;;11.20;99.90;;;;;;5054032;28;20106;-58
2022/09/26 07:05:58;;;;;;;9.30;4.78;;;10.80;99.90;;;;;;5053446;28;20075;-58
2022/09/26 07:08:28;;;;;;;9.07;4.80;;;11.00;99.90;;;;;;5053867;28;20071;-58
2022/09/26 07:11:00;;;;;;;10.70;5.30;;;11.00;99.90;;;;;;5053800;28;20131;-57
2022/09/26 07:13:27;;;;;;;9.70;4.93;;;11.50;99.90;;;;;;5053845;28;20052;-58
2022/09/26 07:15:57;;;;;;;10.23;4.47;;;10.90;99.90;;;;;;5053587;28;20037;-58
2022/09/26 07:18:23;;;;;;;9.40;4.47;;;11.00;99.90;;;;;;5052974;28;20056;-58
2022/09/26 07:20:50;;;;;;;6.38;4.10;;;11.20;99.90;;;;;;5053630;28;20045;-57
2022/09/26 07:23:16;;;;;;;7.38;4.47;;;10.80;99.90;;;;;;5053376;28;20073;-58
2022/09/26 07:25:46;;;;;;;9.25;4.28;;;11.00;99.90;;;;;;5053615;28;20037;-57
2022/09/26 07:28:13;;;;;;;7.13;4.35;;;11.00;99.90;;;;;;5052010;28;20076;-58
2022/09/26 07:30:39;;;;;;;8.40;4.32;;;;;;;;;;5052727;28;20083;-57
2022/09/26 07:33:08;;;;;;;11.02;4.47;;;10.50;99.90;;;;;;5053578;28;20048;-58
2022/09/26 07:35:39;;;;;;;10.18;4.72;;;11.20;99.90;;;;;;5053464;28;20520;-57
2022/09/26 07:38:05;;;;;;;11.38;4.68;;;11.20;99.90;;;;;;5053253;28;20041;-57
2022/09/26 07:40:31;;;;;;;10.35;4.75;;;10.50;99.90;;;;;;5053035;28;20048;-57
2022/09/26 07:43:00;;;;;;;5.93;4.35;;;11.50;99.90;;;;;;5053106;28;20167;-58
2022/09/26 07:50:58;;;;;;;6.80;4.40;;;11.40;99.90;;;;;;5053140;28;20444;-57
2022/09/26 07:53:26;;;;;;;10.32;5.25;;;10.90;99.90;;;;;;5052931;28;20074;-57
2022/09/26 07:56:05;;;;;;;13.52;4.70;;;11.20;99.90;;;;;;5052957;28;20033;-57
2022/09/26 07:58:38;;;;;;;8.15;4.35;;;11.40;99.90;;;;;;5053391;28;20044;-57
2022/09/26 08:01:06;;;;;;;8.63;4.38;;;11.30;99.90;;;;;;5051659;28;20057;-57
2022/09/26 08:03:32;;;;;;;9.48;4.40;;;11.70;99.90;;;;;;5051926;28;20393;-57
2022/09/26 08:06:02;;;;;;;7.80;4.30;;;12.50;99.90;;;;;;5051880;28;20048;-58
2022/09/26 08:08:28;;;;;;;7.15;4.47;;;11.20;99.90;;;;;;5052151;28;20120;-57
2022/09/26 08:10:56;;;;;;;8.45;4.30;;;10.50;99.90;;;;;;5053057;28;20058;-57
2022/09/26 08:13:28;;;;;;;14.05;4.55;;;11.30;99.90;;;;;;5052693;28;20401;-58
2022/09/26 08:15:55;;;;;;;9.93;4.40;;;;;;;;;;5053106;28;20045;-58
2022/09/26 08:18:22;;;;;;;10.07;4.70;;;11.20;99.90;;;;;;5051425;28;20102;-58
2022/09/26 08:20:49;;;;;;;8.35;4.45;;;11.30;99.90;;;;;;5051275;28;20083;-58
2022/09/26 08:23:16;;;;;;;11.95;4.60;;;10.30;99.90;;;;;;5052793;28;20041;-58
2022/09/26 08:25:43;;;;;;;9.40;4.72;;;11.30;99.90;;;;;;5052898;28;20116;-58
2022/09/26 08:28:13;;;;;;;11.90;4.35;;;11.20;99.90;;;;;;5039472;28;20117;-58
2022/09/26 08:30:39;;;;;;;9.23;4.47;;;11.40;99.90;;;;;;5032953;28;20431;-58
2022/09/26 08:33:07;;;;;;;12.65;4.38;;;11.20;99.90;;;;;;5033042;28;20037;-57
2022/09/26 08:35:37;;;;;;;9.02;4.63;;;11.40;99.90;;;;;;5064186;28;20071;-57
2022/09/26 08:38:07;;;;;;;10.13;4.55;;;11.80;99.90;;;;;;5032933;28;20240;-57
2022/09/26 08:40:45;;;;;;;8.40;4.70;;;11.70;99.90;;;;;;5032713;28;20072;-57
2022/09/26 08:43:30;;;;;;;7.32;4.50;;;11.60;99.90;;;;;;5034422;28;20402;-58
2022/09/26 08:46:34;;;;;;;7.90;4.35;;;11.70;99.90;;;;;;5036774;28;20041;-57
2022/09/26 08:49:39;;;;;;;7.15;4.63;;;11.80;99.90;;;;;;5036760;28;20072;-58
2022/09/26 08:52:12;;;;;;;14.10;4.65;;;12.00;99.90;;;;;;5068263;28;20095;-57
2022/09/26 08:54:43;;;;;;;12.40;4.85;;;11.80;99.90;;;;;;5036878;28;20094;-58
2022/09/26 08:57:24;;;;;;;11.00;4.57;;;11.90;99.90;;;;;;5036286;28;20049;-57
2022/09/26 08:59:52;;;;;;;10.57;4.40;;;11.90;99.90;;;;;;5036241;28;20056;-57
2022/09/26 09:02:45;;;;;;;9.65;4.53;;;11.90;99.90;;;;;;5035956;28;20132;-58
2022/09/26 09:05:30;;;;;;;10.50;4.45;;;11.90;99.90;;;;;;5036394;28;20045;-58
2022/09/26 09:07:57;;;;;;;9.00;4.28;;;12.00;99.90;;;;;;5036510;28;20497;-58
2022/09/26 09:10:39;;;;;;;9.70;4.60;;;11.90;99.90;;;;;;5036284;28;20072;-58
2022/09/26 09:13:33;;;;;;;9.47;4.30;;;12.00;99.90;;;;;;5036423;28;20045;-60
2022/09/26 09:16:05;;;;;;;9.70;4.47;;;12.00;99.90;;;;;;5036148;28;20409;-58
2022/09/26 09:19:06;;;;;;;8.27;4.35;;;12.10;99.90;;;;;;5035967;28;20042;-58
2022/09/26 09:22:20;;;;;;;8.85;4.55;;;12.00;99.90;;;;;;5036107;28;20049;-58
2022/09/26 09:24:57;;;;;;;8.80;4.45;;;12.00;99.90;;;;;;5035040;28;20053;-58
2022/09/26 09:27:31;;;;;;;13.75;4.40;;;12.10;99.90;;;;;;5035780;28;20041;-58
2022/09/26 09:30:14;;;;;;;9.73;4.50;;;12.00;99.90;;;;;;5035929;28;20037;-58
2022/09/26 09:32:55;;;;;;;9.38;4.78;;;12.30;99.90;;;;;;5036000;28;20117;-58
2022/09/26 09:35:33;;;;;;;10.02;4.60;;;12.30;99.90;;;;;;5035723;28;20071;-58
2022/09/26 09:38:00;;;;;;;10.88;4.80;;;12.30;99.90;;;;;;5035492;28;20037;-58
2022/09/26 09:40:27;;;;;;;8.82;4.88;;;;;;;;;;5035484;28;20080;-58
2022/09/26 09:43:04;;;;;;;10.85;4.82;;;12.00;99.90;;;;;;5034460;28;20490;-58
2022/09/26 09:45:50;;;;;;;13.05;5.65;;;12.20;99.90;;;;;;5035407;28;20496;-58
2022/09/26 09:48:16;;;;;;;9.93;4.80;;;12.20;99.90;;;;;;5034029;28;20063;-59
2022/09/26 09:50:42;;;;;;;9.10;4.45;;;;;;;;;;5035179;28;20037;-58
2022/09/26 09:53:38;;;;;;;9.32;4.70;;;12.20;99.90;;;;;;5035326;28;20041;-58
2022/09/26 09:56:26;;;;;;;8.65;4.32;;;12.20;99.90;;;;;;5035093;28;20456;-58
2022/09/26 09:59:30;;;;;;;11.70;4.70;;;12.10;99.90;;;;;;5033887;28;20393;-58
2022/09/26 10:02:16;;;;;;;10.15;5.30;;;12.10;99.90;;;;;;5034913;28;20054;-58
2022/09/26 10:04:45;;;;;;;;;;;12.20;99.90;;;;;;5035450;28;20500;-59
2022/09/26 10:07:11;;;;;;;9.88;4.68;;;13.00;99.90;;;;;;5034766;28;19917;-58
2022/09/26 10:09:39;;;;;;;11.73;4.78;;;12.10;99.90;;;;;;5035115;28;20041;-58
2022/09/26 10:12:13;;;;;;;10.48;4.90;;;11.60;99.90;;;;;;5035203;28;20057;-58
2022/09/26 10:15:18;;;;;;;8.15;4.80;;;12.30;99.90;;;;;;5035008;28;20037;-58
2022/09/26 10:18:02;;;;;;;9.95;4.90;;;11.90;99.90;;;;;;5033743;28;20049;-58
2022/09/26 10:20:36;;;;;;;12.52;4.85;;;12.10;99.90;;;;;;5033567;28;20049;-58
2022/09/26 10:23:19;;;;;;;9.07;5.22;;;11.70;99.90;;;;;;5035079;28;20186;-58
2022/09/26 10:25:52;;;;;;;9.57;5.00;;;12.00;99.90;;;;;;5034580;28;20100;-59
2022/09/26 10:28:32;;;;;;;11.25;5.20;;;12.00;99.90;;;;;;5034839;28;20037;-58
2022/09/26 10:31:07;;;;;;;17.58;5.72;;;11.90;99.90;;;;;;5034734;28;20399;-58
2022/09/26 10:33:37;;;;;;;12.80;5.93;;;11.20;99.90;;;;;;5034528;28;20549;-58
2022/09/26 10:36:10;;;;;;;12.75;5.43;;;12.10;99.90;;;;;;5034389;28;20068;-58
2022/09/26 10:41:43;;;;;;;13.40;5.43;;;12.00;99.90;;;;;;5034326;28;20041;-58
2022/09/26 10:44:33;;;;;;;10.57;5.22;;;11.90;99.90;;;;;;5034470;28;20048;-58
2022/09/26 10:47:07;;;;;;;9.25;5.50;;;12.40;99.90;;;;;;5034494;28;20044;-58
2022/09/26 10:49:53;;;;;;;11.15;5.43;;;11.40;99.90;;;;;;5034382;28;20393;-58
2022/09/26 10:52:28;;;;;;;10.82;5.60;;;12.80;99.90;;;;;;5034265;28;20048;-58
2022/09/26 10:55:03;;;;;;;12.73;5.50;;;12.20;99.90;;;;;;5034096;28;20047;-58
2022/09/26 10:57:57;;;;;;;10.23;5.60;;;11.70;99.90;;;;;;5032986;28;20810;-58
2022/09/26 11:00:32;;;;;;;9.95;5.35;;;11.90;99.90;;;;;;5033529;28;20142;-58
2022/09/26 11:02:59;;;;;;;9.87;5.30;;;12.00;99.90;;;;;;5034183;28;20397;-59
2022/09/26 11:08:12;;;;;;;9.85;5.53;;;12.20;99.90;;;;;;5034000;28;20067;-59
2022/09/26 11:10:40;;;;;;;8.27;5.30;;;12.20;99.90;;;;;;5033951;28;20045;-59
2022/09/26 11:13:18;;;;;;;9.40;5.43;;;11.90;99.90;;;;;;5034000;28;20128;-59
2022/09/26 11:16:00;;;;;;;9.05;5.40;;;11.90;99.90;;;;;;5033642;28;20053;-58
2022/09/26 11:19:00;;;;;;;10.45;5.40;;;11.40;99.90;;;;;;5033724;28;20045;-58
2022/09/26 11:21:52;;;;;;;10.02;5.50;;;12.30;99.90;;;;;;5033867;28;20045;-58
2022/09/26 11:24:45;;;;;;;9.80;5.80;;;11.90;99.90;;;;;;5034017;28;20489;-58
2022/09/26 11:27:27;;;;;;;9.77;5.80;;;12.70;99.90;;;;;;5032863;28;20045;-58
2022/09/26 11:30:00;;;;;;;9.98;6.00;;;11.90;99.90;;;;;;5033838;28;20059;-58
2022/09/26 11:32:39;;;;;;;10.27;6.30;;;11.90;99.90;;;;;;5033406;28;20041;-58
2022/09/26 11:35:12;;;;;;;10.38;6.40;;;11.90;99.90;;;;;;5032201;28;20549;-59
2022/09/26 11:38:04;;;;;;;11.75;6.95;;;12.00;99.90;;;;;;5033569;28;20145;-58
2022/09/26 11:41:06;;;;;;;11.57;6.60;;;12.30;99.90;;;;;;5033538;28;20099;-59
2022/09/26 11:43:37;;;;;;;12.93;6.43;;;11.80;99.90;;;;;;5032062;28;20045;-58
2022/09/26 11:46:14;;;;;;;12.82;6.78;;;11.60;99.90;;;;;;5033400;28;20044;-58
2022/09/26 11:49:29;;;;;;;14.18;6.50;;;12.10;99.90;;;;;;5033740;28;20384;-59
2022/09/26 11:52:23;;;;;;;10.80;6.38;;;11.40;99.90;;;;;;5033435;28;20073;-59
2022/09/26 11:55:16;;;;;;;11.25;5.70;;;12.60;99.90;;;;;;5033129;28;20107;-59
2022/09/26 11:58:05;;;;;;;9.40;6.20;;;12.00;99.90;;;;;;5032277;28;20041;-59
2022/09/26 12:00:54;;;;;;;11.25;5.75;;;12.10;99.90;;;;;;5031608;28;20091;-59
2022/09/26 12:04:06;;;;;;;10.48;5.93;;;12.10;99.90;;;;;;5033075;28;20042;-59
2022/09/26 12:06:53;;;;;;;11.05;5.82;;;12.10;99.90;;;;;;5030951;28;20072;-58
2022/09/26 12:09:24;;;;;;;11.82;5.80;;;12.50;99.90;;;;;;5030972;28;20037;-58
2022/09/26 12:12:19;;;;;;;12.63;6.20;;;12.30;99.90;;;;;;5030915;28;20091;-59
2022/09/26 12:15:01;;;;;;;8.85;5.90;;;12.30;99.90;;;;;;5030801;28;20540;-59
2022/09/26 12:18:07;;;;;;;8.68;5.40;;;12.60;99.90;;;;;;5016401;28;20049;-59
2022/09/26 12:20:57;;;;;;;7.28;5.47;;;12.10;99.90;;;;;;5034647;28;20163;-58
2022/09/26 12:23:49;;;;;;;8.32;5.30;;;12.50;99.90;;;;;;5034670;28;20049;-59
2022/09/26 12:26:40;;;;;;;8.85;5.45;;;12.30;99.90;;;;;;5034810;28;20108;-58
2022/09/26 12:29:22;;;;;;;9.82;5.00;;;12.90;99.90;;;;;;5018114;28;20041;-59
2022/09/26 12:32:05;;;;;;;7.63;5.07;;;12.40;99.90;;;;;;5034890;28;20061;-59
2022/09/26 12:34:57;;;;;;;8.30;4.60;;;12.40;99.90;;;;;;5034708;28;20057;-59
2022/09/26 12:37:32;;;;;;;5.53;4.15;;;11.80;99.90;;;;;;5034538;28;20072;-59
2022/09/26 12:40:28;;;;;;;6.03;4.00;;;12.10;99.90;;;;;;5034626;28;20034;-59
2022/09/26 12:43:30;;;;;;;5.85;4.15;;;12.30;99.90;;;;;;5035286;28;20054;-58
2022/09/26 12:46:04;;;;;;;6.05;3.92;;;12.20;99.90;;;;;;5036612;28;20046;-58
2022/09/26 12:48:52;;;;;;;5.30;3.80;;;12.20;99.90;;;;;;5036529;28;20033;-59
2022/09/26 12:51:41;;;;;;;5.45;3.70;;;11.90;99.90;;;;;;5036485;28;20037;-59
2022/09/26 12:54:39;;;;;;;6.20;3.95;;;12.20;99.90;;;;;;5035427;28;20057;-59
2022/09/26 12:57:23;;;;;;;5.97;4.00;;;11.80;99.90;;;;;;5036372;28;20381;-59
2022/09/26 13:00:11;;;;;;;6.53;4.20;;;12.20;99.90;;;;;;5036268;28;20081;-59
2022/09/26 13:03:09;;;;;;;5.65;3.88;;;12.40;99.90;;;;;;5035966;28;20515;-58
2022/09/26 13:06:08;;;;;;;5.55;3.92;;;12.40;99.90;;;;;;5068464;28;20343;-59
2022/09/26 13:08:56;;;;;;;6.30;3.90;;;12.40;99.90;;;;;;5036106;28;20045;-59
2022/09/26 13:11:35;;;;;;;4.25;3.60;;;11.80;99.90;;;;;;5034807;28;20045;-59
2022/09/26 13:14:45;;;;;;;7.18;3.70;;;12.00;99.90;;;;;;5035893;28;20045;-59
2022/09/26 13:17:28;;;;;;;7.30;3.70;;;12.70;99.90;;;;;;5068160;28;20060;-59
2022/09/26 13:20:13;;;;;;;5.57;3.42;;;12.60;99.90;;;;;;5037574;28;20037;-59
2022/09/26 13:22:45;;;;;;;5.43;3.33;;;12.00;99.90;;;;;;5049881;28;20057;-59
2022/09/26 13:25:19;;;;;;;5.88;3.47;;;12.30;99.90;;;;;;5055895;28;20043;-59
2022/09/26 13:27:53;;;;;;;5.18;3.38;;;12.30;99.90;;;;;;5056016;28;20111;-59
2022/09/26 13:30:49;;;;;;;4.80;3.50;;;12.50;99.90;;;;;;5055504;28;20053;-59
2022/09/26 13:33:42;;;;;;;4.30;3.20;;;12.30;99.90;;;;;;5056107;28;20052;-58
2022/09/26 13:36:10;;;;;;;6.65;3.95;;;12.30;99.90;;;;;;5055846;28;20041;-58
2022/09/26 13:38:57;;;;;;;4.63;3.30;;;11.90;99.90;;;;;;5055798;28;20138;-58
2022/09/26 13:41:45;;;;;;;4.97;3.22;;;11.60;99.90;;;;;;5055461;28;20051;-58
2022/09/26 13:44:21;;;;;;;6.82;4.07;;;12.50;99.90;;;;;;5054110;28;20044;-58
2022/09/26 13:47:13;;;;;;;6.20;3.60;;;12.20;99.90;;;;;;5055380;28;20041;-58